createdAt,value
2022-12-27T00:00:54.400Z,10.40
2022-12-27T00:03:21.225Z,10.20
2022-12-27T00:05:48.348Z,10.50
2022-12-27T00:08:15.544Z,10.10
2022-12-27T00:10:42.388Z,9.00
2022-12-27T00:13:09.133Z,9.20
2022-12-27T00:15:36.443Z,9.90
2022-12-27T00:18:03.190Z,10.10
2022-12-27T00:20:29.941Z,10.30
2022-12-27T00:22:56.667Z,10.50
2022-12-27T00:25:23.401Z,10.20
2022-12-27T00:27:50.121Z,10.30
2022-12-27T00:30:16.934Z,10.00
2022-12-27T00:32:43.695Z,10.30
2022-12-27T00:35:10.453Z,10.00
2022-12-27T00:37:37.184Z,9.80
2022-12-27T00:40:04.513Z,9.60
2022-12-27T00:42:31.299Z,9.70
2022-12-27T00:44:58.043Z,9.50
2022-12-27T00:47:24.792Z,9.80
2022-12-27T00:49:51.531Z,9.60
2022-12-27T00:52:18.347Z,9.60
2022-12-27T00:54:45.103Z,9.10
2022-12-27T00:57:11.970Z,9.10
2022-12-27T00:59:38.700Z,9.50
2022-12-27T01:02:05.455Z,9.60
2022-12-27T01:04:32.270Z,9.30
2022-12-27T01:06:59.006Z,9.50
2022-12-27T01:09:25.829Z,9.30
2022-12-27T01:11:52.568Z,9.60
2022-12-27T01:14:19.753Z,9.60
2022-12-27T01:16:47.304Z,9.00
2022-12-27T01:19:14.784Z,9.10
2022-12-27T01:21:41.526Z,9.50
2022-12-27T01:24:08.338Z,9.60
2022-12-27T01:26:35.091Z,9.30
2022-12-27T01:29:01.853Z,9.30
2022-12-27T01:31:28.895Z,9.70
2022-12-27T01:33:58.032Z,9.30
2022-12-27T01:36:26.947Z,9.20
2022-12-27T01:38:53.871Z,9.60
2022-12-27T01:41:57.086Z,9.60
2022-12-27T01:44:43.468Z,9.40
2022-12-27T01:47:29.050Z,9.40
2022-12-27T01:50:26.354Z,9.50
2022-12-27T01:53:13.792Z,9.40
2022-12-27T01:55:59.251Z,9.40
2022-12-27T01:58:40.804Z,9.40
2022-12-27T02:01:10.902Z,9.10
2022-12-27T02:03:43.843Z,8.80
2022-12-27T02:06:13.360Z,8.70
2022-12-27T02:09:02.523Z,8.30
2022-12-27T02:11:51.196Z,8.40
2022-12-27T02:14:35.900Z,8.10
2022-12-27T02:17:10.432Z,8.20
2022-12-27T02:19:48.697Z,8.60
2022-12-27T02:22:58.589Z,8.60
2022-12-27T02:25:50.108Z,8.70
2022-12-27T02:29:12.013Z,8.20
2022-12-27T02:32:14.100Z,8.10
2022-12-27T02:34:59.605Z,7.80
2022-12-27T02:37:31.929Z,7.90
2022-12-27T02:40:22.431Z,7.80
2022-12-27T02:43:10.648Z,8.00
2022-12-27T02:46:38.352Z,8.20
2022-12-27T02:49:48.535Z,8.10
2022-12-27T02:53:04.321Z,7.90
2022-12-27T02:56:04.748Z,8.00
2022-12-27T02:58:49.311Z,7.40
2022-12-27T03:02:11.382Z,7.20
2022-12-27T03:04:56.168Z,6.70
2022-12-27T03:07:39.961Z,6.80
2022-12-27T03:10:48.758Z,7.00
2022-12-27T03:13:36.908Z,7.10
2022-12-27T03:23:34.222Z,7.20
2022-12-27T03:26:03.995Z,6.90
2022-12-27T03:28:50.887Z,6.50
2022-12-27T03:31:50.637Z,6.50
2022-12-27T03:34:32.053Z,6.30
2022-12-27T03:37:33.483Z,6.30
2022-12-27T03:40:12.827Z,6.00
2022-12-27T03:43:13.787Z,6.10
2022-12-27T03:46:14.565Z,6.30
2022-12-27T03:49:14.473Z,6.30
2022-12-27T03:52:00.376Z,6.30
2022-12-27T03:54:32.443Z,6.30
2022-12-27T03:57:04.660Z,6.50
2022-12-27T03:59:31.905Z,6.10
2022-12-27T04:01:58.952Z,6.20
2022-12-27T04:04:25.783Z,5.90
2022-12-27T04:06:52.535Z,6.10
2022-12-27T04:09:37.844Z,6.10
2022-12-27T04:12:23.401Z,5.90
2022-12-27T04:15:08.540Z,6.00
2022-12-27T04:17:53.960Z,6.40
2022-12-27T04:20:39.723Z,6.00
2022-12-27T04:23:24.838Z,6.20
2022-12-27T04:26:10.642Z,6.10
2022-12-27T04:28:55.940Z,6.30
2022-12-27T04:31:41.200Z,6.40
2022-12-27T04:34:26.432Z,6.40
2022-12-27T04:36:53.370Z,6.20
2022-12-27T04:39:20.349Z,6.30
2022-12-27T04:42:05.494Z,5.90
2022-12-27T04:44:50.801Z,5.90
2022-12-27T04:47:39.905Z,6.20
2022-12-27T04:50:49.238Z,5.90
2022-12-27T04:53:39.911Z,6.20
2022-12-27T04:56:07.535Z,5.90
2022-12-27T04:58:35.118Z,6.10
2022-12-27T05:01:22.814Z,6.20
2022-12-27T05:03:52.981Z,6.10
2022-12-27T05:06:19.920Z,6.10
2022-12-27T05:09:05.639Z,5.90
2022-12-27T05:11:50.683Z,6.00
2022-12-27T05:14:17.423Z,6.10
2022-12-27T05:16:44.928Z,6.10
2022-12-27T05:19:14.487Z,6.10
2022-12-27T05:22:03.130Z,6.10
2022-12-27T05:24:49.153Z,6.60
2022-12-27T05:27:16.379Z,6.00
2022-12-27T05:29:43.434Z,6.50
2022-12-27T05:32:13.246Z,7.00
2022-12-27T05:34:41.003Z,7.10
2022-12-27T05:37:08.232Z,7.00
2022-12-27T05:39:34.974Z,7.20
2022-12-27T05:42:01.920Z,7.30
2022-12-27T05:44:28.650Z,7.40
2022-12-27T05:46:56.162Z,7.60
2022-12-27T05:49:23.171Z,7.70
2022-12-27T05:51:49.921Z,7.60
2022-12-27T05:54:16.955Z,7.50
2022-12-27T05:56:43.709Z,7.60
2022-12-27T05:59:10.541Z,7.40
2022-12-27T06:01:37.404Z,7.50
2022-12-27T06:04:04.325Z,7.70
2022-12-27T06:06:31.066Z,7.90
2022-12-27T06:08:57.842Z,7.30
2022-12-27T06:11:24.675Z,6.80
2022-12-27T06:13:53.751Z,6.40
2022-12-27T06:16:22.379Z,6.60
2022-12-27T06:18:49.409Z,6.60
2022-12-27T06:21:20.427Z,6.60
2022-12-27T06:23:48.034Z,6.70
2022-12-27T06:26:17.651Z,6.90
2022-12-27T06:28:44.469Z,6.90
2022-12-27T06:31:11.899Z,6.90
2022-12-27T06:33:38.768Z,7.10
2022-12-27T06:36:10.569Z,7.40
2022-12-27T06:38:38.167Z,7.40
2022-12-27T06:41:08.674Z,7.30
2022-12-27T06:43:36.181Z,7.10
2022-12-27T06:46:07.075Z,7.30
2022-12-27T06:48:34.060Z,7.70
2022-12-27T06:51:05.299Z,7.60
2022-12-27T06:53:32.251Z,8.10
2022-12-27T06:56:09.166Z,8.20
2022-12-27T06:58:36.179Z,8.40
2022-12-27T07:01:16.504Z,8.20
2022-12-27T07:03:43.795Z,8.30
2022-12-27T07:06:11.690Z,8.50
2022-12-27T07:08:38.704Z,8.60
2022-12-27T07:11:11.391Z,8.40
2022-12-27T07:13:41.702Z,7.60
2022-12-27T07:16:11.357Z,8.10
2022-12-27T07:18:38.364Z,8.40
2022-12-27T07:21:07.580Z,8.40
2022-12-27T07:23:34.550Z,8.50
2022-12-27T07:26:03.692Z,8.60
2022-12-27T07:28:31.286Z,8.60
2022-12-27T07:30:58.178Z,8.20
2022-12-27T07:33:25.060Z,8.50
2022-12-27T07:36:00.994Z,8.50
2022-12-27T07:38:28.246Z,8.60
2022-12-27T07:40:55.117Z,8.20
2022-12-27T07:43:21.845Z,8.50
2022-12-27T07:45:48.642Z,8.50
2022-12-27T07:48:15.413Z,7.90
2022-12-27T07:50:42.220Z,8.10
2022-12-27T07:53:08.986Z,8.30
2022-12-27T07:55:35.716Z,8.10
2022-12-27T07:58:02.489Z,8.60
2022-12-27T08:00:30.070Z,8.80
2022-12-27T08:02:57.055Z,8.90
2022-12-27T08:05:27.603Z,8.90
2022-12-27T08:07:54.936Z,8.30
2022-12-27T08:10:21.663Z,8.40
2022-12-27T08:12:48.488Z,8.70
2022-12-27T08:15:15.260Z,8.80
2022-12-27T08:17:42.043Z,9.00
2022-12-27T08:20:14.514Z,8.50
2022-12-27T08:22:41.272Z,8.50
2022-12-27T08:25:09.010Z,8.60
2022-12-27T08:27:35.816Z,7.90
2022-12-27T08:30:02.571Z,8.00
2022-12-27T08:32:29.399Z,8.70
2022-12-27T08:35:07.003Z,8.80
2022-12-27T08:37:42.892Z,8.40
2022-12-27T08:40:10.240Z,8.90
2022-12-27T08:42:36.988Z,8.90
2022-12-27T08:45:04.164Z,8.60
2022-12-27T08:47:30.906Z,8.30
2022-12-27T08:49:57.771Z,8.00
2022-12-27T08:52:25.589Z,8.40
2022-12-27T08:54:52.364Z,8.40
2022-12-27T08:57:19.231Z,8.70
2022-12-27T08:59:45.938Z,8.30
2022-12-27T09:02:14.300Z,8.10
2022-12-27T09:04:41.120Z,8.60
2022-12-27T09:07:07.878Z,8.10
2022-12-27T09:09:34.854Z,7.90
2022-12-27T09:12:04.089Z,8.20
2022-12-27T09:14:37.680Z,8.30
2022-12-27T09:17:07.060Z,8.40
2022-12-27T09:19:33.809Z,8.00
2022-12-27T09:22:00.607Z,8.10
2022-12-27T09:24:27.368Z,8.40
2022-12-27T09:26:54.105Z,8.40
2022-12-27T09:29:20.964Z,8.60
2022-12-27T09:31:47.697Z,8.40
2022-12-27T09:34:14.499Z,8.40
2022-12-27T09:36:41.477Z,8.40
2022-12-27T09:39:10.139Z,8.60
2022-12-27T09:45:01.780Z,8.50
2022-12-27T09:47:38.729Z,8.40
2022-12-27T09:50:15.052Z,8.50
2022-12-27T09:52:56.258Z,8.40
2022-12-27T09:55:45.000Z,8.60
2022-12-27T09:58:55.663Z,8.50
2022-12-27T10:01:36.489Z,8.20
2022-12-27T10:04:06.337Z,8.30
2022-12-27T10:06:48.921Z,8.60
2022-12-27T10:09:49.922Z,9.00
2022-12-27T10:13:03.128Z,9.50
2022-12-27T10:16:22.615Z,8.80
2022-12-27T10:19:15.928Z,8.90
2022-12-27T10:22:06.044Z,8.80
2022-12-27T10:24:49.094Z,8.60
2022-12-27T10:27:21.848Z,9.20
2022-12-27T10:29:52.344Z,8.50
2022-12-27T10:32:19.155Z,8.60
2022-12-27T10:34:48.951Z,9.00
2022-12-27T10:37:16.573Z,9.00
2022-12-27T10:39:44.004Z,8.90
2022-12-27T10:42:48.772Z,9.30
2022-12-27T10:45:39.453Z,10.00
2022-12-27T10:48:23.024Z,9.50
2022-12-27T10:50:59.932Z,9.50
2022-12-27T10:53:45.090Z,9.80
2022-12-27T10:56:20.712Z,10.30
2022-12-27T10:58:56.520Z,9.00
2022-12-27T11:01:31.188Z,9.10
2022-12-27T11:04:21.099Z,9.70
2022-12-27T11:07:02.051Z,9.80
2022-12-27T11:09:33.002Z,10.60
2022-12-27T11:12:24.096Z,10.20
2022-12-27T11:14:59.922Z,10.70
2022-12-27T11:17:36.352Z,9.70
2022-12-27T11:20:27.959Z,9.80
2022-12-27T11:23:01.742Z,9.70
2022-12-27T11:25:29.823Z,9.90
2022-12-27T11:28:08.592Z,9.60
2022-12-27T11:30:39.025Z,9.30
2022-12-27T11:33:25.123Z,9.20
2022-12-27T11:35:54.453Z,10.70
2022-12-27T11:38:33.447Z,10.10
2022-12-27T11:41:14.223Z,10.10
2022-12-27T11:43:49.921Z,10.80
2022-12-27T11:46:40.378Z,10.60
2022-12-27T11:49:17.515Z,10.30
2022-12-27T11:52:23.069Z,10.70
2022-12-27T11:55:37.564Z,10.30
2022-12-27T11:58:40.145Z,9.80
2022-12-27T12:01:19.402Z,9.80
2022-12-27T12:04:42.247Z,11.10
2022-12-27T12:07:52.054Z,10.70
2022-12-27T12:10:39.861Z,10.60
2022-12-27T12:13:38.300Z,10.50
2022-12-27T12:16:43.303Z,10.60
2022-12-27T12:20:04.391Z,11.20
2022-12-27T12:23:11.392Z,11.30
2022-12-27T12:26:11.612Z,10.60
2022-12-27T12:29:19.767Z,10.30
2022-12-27T12:32:19.698Z,9.90
2022-12-27T12:35:22.928Z,10.60
2022-12-27T12:38:22.649Z,10.70
2022-12-27T12:42:00.369Z,10.80
2022-12-27T12:45:14.010Z,10.50
2022-12-27T12:48:03.248Z,10.00
2022-12-27T12:51:14.025Z,10.10
2022-12-27T12:54:17.977Z,9.80
2022-12-27T12:57:25.554Z,10.00
2022-12-27T13:00:32.163Z,10.20
2022-12-27T13:03:16.575Z,10.40
2022-12-27T13:06:16.401Z,10.20
2022-12-27T13:09:03.342Z,10.30
2022-12-27T13:12:18.104Z,10.30
2022-12-27T13:15:13.878Z,10.30
2022-12-27T13:17:59.571Z,10.60
2022-12-27T13:21:06.010Z,10.30
2022-12-27T13:23:54.060Z,10.30
2022-12-27T13:26:52.262Z,10.20
2022-12-27T13:29:52.606Z,10.20
2022-12-27T13:33:12.153Z,10.10
2022-12-27T13:36:25.496Z,9.90
2022-12-27T13:39:26.037Z,10.20
2022-12-27T13:42:49.141Z,10.30
2022-12-27T13:45:47.512Z,10.10
2022-12-27T13:48:38.400Z,10.00
2022-12-27T13:51:31.457Z,10.50
2022-12-27T13:54:37.162Z,10.50
2022-12-27T13:57:24.510Z,9.90
2022-12-27T14:00:17.321Z,10.00
2022-12-27T14:03:06.155Z,10.00
2022-12-27T14:05:41.710Z,10.40
2022-12-27T14:09:07.923Z,10.50
2022-12-27T14:12:50.224Z,10.70
2022-12-27T14:16:17.300Z,10.90
2022-12-27T14:19:52.431Z,11.10
2022-12-27T14:23:29.935Z,11.10
2022-12-27T14:26:49.575Z,10.30
2022-12-27T14:30:15.211Z,10.30
2022-12-27T14:36:50.586Z,10.10
2022-12-27T14:39:47.409Z,10.30
2022-12-27T14:43:02.252Z,10.40
2022-12-27T14:46:11.273Z,10.50
2022-12-27T14:48:54.952Z,10.60
2022-12-27T14:55:05.235Z,10.70
2022-12-27T14:58:10.376Z,10.80
2022-12-27T15:01:04.858Z,10.50
2022-12-27T15:04:04.069Z,10.60
2022-12-27T15:07:17.079Z,10.90
2022-12-27T15:10:33.904Z,10.50
2022-12-27T15:13:50.329Z,10.60
2022-12-27T15:16:38.134Z,10.50
2022-12-27T15:19:36.205Z,10.60
2022-12-27T15:22:33.782Z,10.90
2022-12-27T15:25:29.248Z,10.60
2022-12-27T15:28:22.671Z,10.30
2022-12-27T15:30:57.425Z,9.90
2022-12-27T15:34:04.508Z,10.10
2022-12-27T15:36:42.645Z,10.00
2022-12-27T15:39:34.432Z,10.00
2022-12-27T15:42:38.647Z,10.00
2022-12-27T15:45:17.584Z,9.70
2022-12-27T15:48:21.682Z,9.80
2022-12-27T15:51:07.307Z,10.00
2022-12-27T15:54:02.953Z,10.10
2022-12-27T15:56:53.436Z,10.00
2022-12-27T15:59:51.116Z,9.90
2022-12-27T16:02:17.898Z,9.90
2022-12-27T16:04:57.813Z,9.70
2022-12-27T16:07:47.654Z,9.60
2022-12-27T16:10:35.325Z,9.70
2022-12-27T16:13:05.077Z,9.70
2022-12-27T16:15:34.647Z,9.20
2022-12-27T16:18:03.453Z,9.10
2022-12-27T16:20:32.442Z,9.50
2022-12-27T16:23:06.596Z,9.60
2022-12-27T16:25:38.710Z,9.80
2022-12-27T16:28:23.837Z,10.10
2022-12-27T16:30:56.630Z,9.80
2022-12-27T16:33:26.433Z,9.10
2022-12-27T16:36:11.641Z,8.90
2022-12-27T16:38:57.222Z,9.30
2022-12-27T16:41:58.971Z,9.50
2022-12-27T16:44:25.548Z,9.60
2022-12-27T16:47:04.168Z,9.60
2022-12-27T16:50:06.302Z,9.50
2022-12-27T16:53:10.919Z,9.60
2022-12-27T16:55:47.082Z,9.70
2022-12-27T16:58:35.148Z,9.80
2022-12-27T17:01:26.977Z,9.90
2022-12-27T17:03:58.786Z,9.60
2022-12-27T17:06:33.479Z,9.90
2022-12-27T17:09:10.245Z,9.90
2022-12-27T17:11:50.323Z,9.70
2022-12-27T17:14:25.176Z,9.90
2022-12-27T17:17:00.702Z,9.80
2022-12-27T17:19:39.091Z,9.80
2022-12-27T17:22:12.852Z,9.90
2022-12-27T17:24:39.650Z,9.80
2022-12-27T17:27:42.589Z,9.40
2022-12-27T17:30:20.956Z,9.10
2022-12-27T17:33:25.128Z,9.00
2022-12-27T17:36:09.259Z,8.90
2022-12-27T17:38:44.414Z,8.90
2022-12-27T17:41:48.129Z,8.90
2022-12-27T17:44:51.109Z,9.20
2022-12-27T17:47:42.758Z,9.30
2022-12-27T17:50:15.764Z,9.40
2022-12-27T17:53:00.906Z,9.60
2022-12-27T17:55:47.750Z,9.60
2022-12-27T17:58:17.089Z,9.60
2022-12-27T18:00:59.464Z,9.20
2022-12-27T18:03:39.562Z,9.10
2022-12-27T18:06:06.826Z,9.30
2022-12-27T18:08:34.427Z,9.20
2022-12-27T18:11:05.026Z,9.30
2022-12-27T18:13:36.175Z,9.50
2022-12-27T18:16:37.875Z,9.20
2022-12-27T18:19:04.885Z,9.10
2022-12-27T18:21:32.211Z,9.40
2022-12-27T18:23:59.324Z,9.60
2022-12-27T18:27:06.741Z,9.50
2022-12-27T18:29:34.247Z,9.40
2022-12-27T18:32:05.686Z,9.20
2022-12-27T18:34:45.729Z,9.30
2022-12-27T18:37:18.302Z,9.00
2022-12-27T18:40:04.537Z,8.50
2022-12-27T18:42:36.557Z,8.70
2022-12-27T18:45:28.988Z,8.70
2022-12-27T18:48:00.123Z,8.60
2022-12-27T18:50:31.090Z,8.40
2022-12-27T18:53:19.121Z,8.60
2022-12-27T18:56:23.680Z,8.20
2022-12-27T18:59:30.659Z,8.50
2022-12-27T19:02:01.339Z,8.10
2022-12-27T19:04:32.933Z,8.20
2022-12-27T19:07:08.195Z,8.50
2022-12-27T19:10:01.848Z,8.70
2022-12-27T19:12:37.019Z,8.40
2022-12-27T19:15:21.708Z,8.50
2022-12-27T19:17:53.833Z,8.30
2022-12-27T19:20:28.552Z,8.30
2022-12-27T19:22:57.839Z,8.00
2022-12-27T19:25:39.197Z,8.20
2022-12-27T19:28:27.289Z,8.40
2022-12-27T19:31:16.281Z,7.70
2022-12-27T19:33:53.020Z,8.10
2022-12-27T19:36:30.460Z,7.60
2022-12-27T19:38:57.734Z,8.20
2022-12-27T19:41:25.010Z,8.30
2022-12-27T19:43:51.860Z,8.20
2022-12-27T19:46:19.652Z,8.40
2022-12-27T19:48:55.296Z,8.20
2022-12-27T19:51:33.317Z,7.60
2022-12-27T19:54:00.145Z,8.00
2022-12-27T19:56:27.204Z,8.00
2022-12-27T19:58:55.121Z,7.90
2022-12-27T20:01:21.916Z,8.10
2022-12-27T20:03:48.794Z,8.40
2022-12-27T20:06:23.019Z,8.00
2022-12-27T20:08:53.413Z,8.10
2022-12-27T20:11:22.760Z,8.60
2022-12-27T20:13:50.313Z,8.20
2022-12-27T20:16:21.678Z,8.20
2022-12-27T20:18:48.386Z,8.30
2022-12-27T20:21:18.555Z,8.40
2022-12-27T20:23:46.804Z,8.60
2022-12-27T20:26:20.221Z,8.40
2022-12-27T20:28:47.969Z,8.60
2022-12-27T20:31:17.576Z,8.50
2022-12-27T20:33:44.367Z,8.80
2022-12-27T20:36:11.755Z,8.60
2022-12-27T20:38:39.562Z,8.40
2022-12-27T20:41:12.506Z,8.60
2022-12-27T20:43:40.036Z,8.20
2022-12-27T20:46:09.590Z,8.00
2022-12-27T20:48:41.881Z,8.50
2022-12-27T20:51:21.742Z,8.00
2022-12-27T20:53:54.587Z,8.50
2022-12-27T20:56:21.424Z,8.40
2022-12-27T20:58:48.154Z,8.50
2022-12-27T21:01:19.044Z,8.20
2022-12-27T21:03:46.227Z,8.50
2022-12-27T21:06:17.080Z,8.70
2022-12-27T21:08:49.117Z,8.30
2022-12-27T21:11:26.729Z,8.60
2022-12-27T21:13:53.634Z,9.00
2022-12-27T21:16:24.373Z,9.00
2022-12-27T21:18:51.565Z,9.00
2022-12-27T21:21:21.942Z,8.90
2022-12-27T21:23:50.073Z,8.80
2022-12-27T21:26:23.598Z,8.80
2022-12-27T21:28:50.646Z,8.70
2022-12-27T21:31:18.146Z,8.60
2022-12-27T21:33:46.170Z,8.30
2022-12-27T21:36:16.454Z,8.40
2022-12-27T21:38:44.159Z,8.20
2022-12-27T21:41:17.617Z,8.00
2022-12-27T21:43:45.618Z,8.20
2022-12-27T21:46:22.902Z,8.40
2022-12-27T21:48:56.090Z,8.50
2022-12-27T21:51:23.423Z,8.30
2022-12-27T21:53:50.386Z,8.00
2022-12-27T21:56:17.940Z,8.50
2022-12-27T21:58:45.362Z,8.20
2022-12-27T22:01:16.870Z,8.70
2022-12-27T22:03:47.780Z,8.60
2022-12-27T22:06:21.750Z,8.00
2022-12-27T22:08:51.897Z,8.40
2022-12-27T22:11:21.205Z,8.20
2022-12-27T22:13:48.726Z,7.80
2022-12-27T22:16:32.434Z,8.30
2022-12-27T22:18:59.883Z,8.10
2022-12-27T22:21:31.019Z,8.40
2022-12-27T22:24:00.318Z,8.20
2022-12-27T22:26:39.247Z,8.20
2022-12-27T22:29:06.619Z,8.40
2022-12-27T22:31:36.508Z,8.70
2022-12-27T22:34:04.843Z,7.90
2022-12-27T22:36:31.950Z,7.70
2022-12-27T22:38:59.681Z,8.10
2022-12-27T22:41:30.879Z,8.00
2022-12-27T22:44:03.281Z,8.20
2022-12-27T22:46:51.333Z,8.70
2022-12-27T22:49:17.668Z,8.50
2022-12-27T22:51:44.591Z,8.10
2022-12-27T22:54:11.350Z,7.70
2022-12-27T22:56:42.461Z,7.60
2022-12-27T22:59:13.329Z,7.70
2022-12-27T23:01:41.827Z,7.50
2022-12-27T23:04:11.869Z,7.80
2022-12-27T23:06:39.717Z,7.70
2022-12-27T23:09:07.590Z,7.60
2022-12-27T23:11:38.199Z,7.60
2022-12-27T23:14:10.912Z,8.00
2022-12-27T23:16:43.167Z,7.80
2022-12-27T23:19:12.580Z,8.00
2022-12-27T23:21:39.628Z,7.80
2022-12-27T23:24:07.562Z,7.60
2022-12-27T23:26:34.491Z,7.60
2022-12-27T23:29:01.341Z,7.50
2022-12-27T23:31:28.400Z,7.40
2022-12-27T23:33:55.503Z,8.10
2022-12-27T23:36:22.982Z,8.10
2022-12-27T23:38:50.072Z,7.80
2022-12-27T23:41:22.368Z,7.70
2022-12-27T23:43:55.033Z,7.70
2022-12-27T23:46:34.028Z,7.90
2022-12-27T23:49:03.610Z,8.00
2022-12-27T23:51:32.596Z,7.70
2022-12-27T23:53:59.547Z,7.90
2022-12-27T23:56:31.978Z,8.10
2022-12-27T23:59:00.857Z,8.30
